Time;durP1;ratioP1;P1;durP2;ratioP2;P2;SDS_P1;SDS_P2;PMS_P1;PMS_P2;Temp;Humidity;BMP_temperature;BMP_pressure;BME280_temperature;BME280_humidity;BME280_pressure;Samples;Min_cycle;Max_cycle;Signal;HPM_P1;HPM_P2
2022/12/27 00:00:00;;;;;;;1.20;1.10;;;20.50;43.80;;;;;;5069686;28;20465;-73
2022/12/27 00:02:27;;;;;;;1.20;1.10;;;20.40;44.30;;;;;;5069151;28;20076;-73
2022/12/27 00:04:55;;;;;;;1.45;1.27;;;20.40;43.70;;;;;;5068704;28;20082;-73
2022/12/27 00:07:22;;;;;;;1.77;1.20;;;20.50;43.80;;;;;;5068779;28;20055;-73
2022/12/27 00:09:52;;;;;;;1.42;1.33;;;20.50;43.80;;;;;;5068964;28;20052;-73
2022/12/27 00:12:19;;;;;;;1.17;1.08;;;20.50;43.80;;;;;;5068531;28;20437;-73
2022/12/27 00:14:46;;;;;;;1.45;1.20;;;20.50;43.80;;;;;;5069002;28;20049;-73
2022/12/27 00:17:13;;;;;;;1.70;1.60;;;20.40;43.70;;;;;;5068469;28;20275;-73
2022/12/27 00:19:40;;;;;;;1.17;1.08;;;20.40;43.70;;;;;;5069216;28;20040;-73
2022/12/27 00:22:07;;;;;;;1.13;1.02;;;20.40;43.70;;;;;;5062777;28;20059;-73
2022/12/27 00:24:35;;;;;;;1.23;1.20;;;20.40;43.70;;;;;;5069056;28;20135;-73
2022/12/27 00:27:02;;;;;;;1.52;1.42;;;20.40;43.80;;;;;;5068202;28;20045;-73
2022/12/27 00:29:29;;;;;;;1.10;0.98;;;20.40;44.30;;;;;;5068509;28;20051;-73
2022/12/27 00:31:56;;;;;;;0.82;0.82;;;20.40;43.80;;;;;;5068531;28;20143;-73
2022/12/27 00:34:23;;;;;;;0.95;0.95;;;20.40;43.80;;;;;;5068331;28;20070;-73
2022/12/27 00:36:50;;;;;;;1.30;1.20;;;20.40;43.80;;;;;;5068389;28;20143;-73
2022/12/27 00:39:17;;;;;;;0.82;0.82;;;20.40;43.80;;;;;;5068512;28;20515;-72
2022/12/27 00:41:45;;;;;;;1.10;1.08;;;20.40;43.80;;;;;;5068283;28;20136;-73
2022/12/27 00:44:12;;;;;;;1.42;1.33;;;20.40;43.80;;;;;;5068232;28;20048;-73
2022/12/27 00:46:39;;;;;;;1.40;1.30;;;20.40;43.80;;;;;;5067458;28;20467;-73
2022/12/27 00:49:06;;;;;;;0.88;0.88;;;20.40;43.80;;;;;;5068704;28;20513;-72
2022/12/27 00:51:33;;;;;;;1.02;1.02;;;20.40;43.80;;;;;;5068490;28;20078;-73
2022/12/27 00:54:00;;;;;;;1.27;1.15;;;20.40;43.80;;;;;;5062916;28;20043;-72
2022/12/27 00:56:29;;;;;;;1.67;1.40;;;20.40;43.80;;;;;;5068287;28;20135;-73
2022/12/27 00:59:00;;;;;;;1.10;0.75;;;20.40;43.80;;;;;;5067945;28;20508;-73
2022/12/27 01:01:29;;;;;;;1.67;1.58;;;20.40;43.80;;;;;;5068632;28;20136;-73
2022/12/27 01:03:57;;;;;;;1.30;1.20;;;20.40;43.80;;;;;;5068209;28;20501;-73
2022/12/27 01:06:30;;;;;;;1.63;1.30;;;20.40;43.80;;;;;;5068194;28;20509;-73
2022/12/27 01:08:59;;;;;;;1.45;1.35;;;20.40;43.80;;;;;;5067231;28;20068;-72
2022/12/27 01:11:28;;;;;;;1.58;1.40;;;20.40;43.80;;;;;;5067513;28;20048;-73
2022/12/27 01:13:57;;;;;;;1.13;1.13;;;20.40;43.80;;;;;;5068761;28;20131;-73
2022/12/27 01:16:25;;;;;;;1.60;1.50;;;20.40;43.80;;;;;;5067719;28;20040;-73
2022/12/27 01:18:52;;;;;;;1.30;1.20;;;20.40;43.80;;;;;;5067569;28;20131;-73
2022/12/27 01:21:21;;;;;;;1.42;1.33;;;20.40;43.80;;;;;;5067848;28;20574;-73
2022/12/27 01:23:49;;;;;;;1.25;1.15;;;20.40;43.80;;;;;;5067632;28;20044;-73
2022/12/27 01:26:19;;;;;;;1.50;1.40;;;20.40;43.80;;;;;;5067659;28;20045;-72
2022/12/27 01:28:47;;;;;;;1.40;1.27;;;20.40;43.80;;;;;;5064729;28;20224;-72
2022/12/27 01:31:20;;;;;;;1.33;1.23;;;20.40;43.80;;;;;;5068148;28;20044;-73
2022/12/27 01:33:47;;;;;;;2.05;1.42;;;20.40;43.80;;;;;;5067577;28;20720;-72
2022/12/27 01:36:20;;;;;;;1.50;1.40;;;20.30;43.80;;;;;;5067638;28;20048;-73
2022/12/27 01:38:48;;;;;;;1.52;1.42;;;20.40;43.80;;;;;;5067507;28;20143;-73
2022/12/27 01:44:48;;;;;;;1.17;1.08;;;20.30;43.80;;;;;;5067396;28;20082;-73
2022/12/27 01:47:45;;;;;;;1.67;1.50;;;20.30;43.80;;;;;;5067846;28;20044;-73
2022/12/27 01:50:33;;;;;;;1.58;1.42;;;20.30;43.80;;;;;;5066565;28;20082;-73
2022/12/27 01:53:10;;;;;;;1.30;1.20;;;20.30;43.80;;;;;;5067145;28;20410;-74
2022/12/27 01:55:46;;;;;;;1.23;1.13;;;20.30;43.80;;;;;;5066871;28;20390;-73
2022/12/27 01:58:23;;;;;;;1.40;1.30;;;20.40;43.80;;;;;;5067405;28;20048;-73
2022/12/27 02:00:51;;;;;;;1.60;1.50;;;20.30;43.80;;;;;;5062608;28;20044;-73
2022/12/27 02:03:28;;;;;;;1.55;1.17;;;20.30;43.80;;;;;;5066706;28;20049;-73
2022/12/27 02:05:57;;;;;;;1.20;1.10;;;20.40;43.80;;;;;;5066934;28;20041;-72
2022/12/27 02:08:58;;;;;;;1.33;1.17;;;20.40;43.90;;;;;;5067812;28;20048;-73
2022/12/27 02:14:31;;;;;;;1.58;1.10;;;20.30;43.80;;;;;;5066863;28;20082;-72
2022/12/27 02:17:02;;;;;;;1.20;1.10;;;20.40;43.90;;;;;;5067291;28;20473;-72
2022/12/27 02:19:49;;;;;;;1.38;1.25;;;20.40;43.80;;;;;;5067561;28;20054;-72
2022/12/27 02:26:07;;;;;;;1.33;1.23;;;20.40;43.80;;;;;;5066748;28;20044;-72
2022/12/27 02:29:02;;;;;;;1.50;1.40;;;20.40;43.80;;;;;;5067054;28;20053;-73
2022/12/27 02:32:09;;;;;;;1.25;1.15;;;20.40;43.80;;;;;;5069259;28;20056;-72
2022/12/27 02:34:56;;;;;;;1.50;1.33;;;20.40;43.80;;;;;;5065071;28;20390;-73
2022/12/27 02:37:28;;;;;;;2.03;1.30;;;20.40;43.90;;;;;;5070076;28;20127;-72
2022/12/27 02:53:02;;;;;;;1.95;1.20;;;20.40;43.80;;;;;;5071069;28;20045;-72
2022/12/27 02:54:51;;;;;;;1.42;1.33;;;20.30;43.80;;;;;;5070164;28;20044;-73
2022/12/27 02:57:53;;;;;;;1.75;1.65;;;20.30;43.80;;;;;;5070233;28;20048;-71
2022/12/27 03:03:34;;;;;;;1.45;1.35;;;20.30;43.80;;;;;;5070621;28;20404;-73
2022/12/27 03:06:41;;;;;;;1.80;1.58;;;20.30;43.80;;;;;;5070183;28;20322;-73
2022/12/27 03:15:55;;;;;;;1.40;1.30;;;20.30;43.80;;;;;;5070247;28;20293;-73
2022/12/27 03:18:40;;;;;;;1.30;1.20;;;20.30;43.80;;;;;;5070217;28;20059;-72
2022/12/27 03:26:47;;;;;;;1.30;1.20;;;20.30;43.80;;;;;;5070405;28;20049;-72
2022/12/27 03:35:09;;;;;;;1.10;1.10;;;20.30;43.80;;;;;;5069403;28;19921;-72
2022/12/27 03:43:35;;;;;;;1.30;1.20;;;20.30;43.80;;;;;;5068876;28;20049;-73
2022/12/27 03:46:34;;;;;;;1.58;1.17;;;20.30;43.80;;;;;;5068884;28;20049;-72
2022/12/27 03:49:22;;;;;;;1.42;1.17;;;20.30;43.80;;;;;;5069427;28;20048;-72
2022/12/27 03:52:15;;;;;;;1.33;1.23;;;20.30;43.80;;;;;;5053767;28;20127;-73
2022/12/27 03:54:46;;;;;;;1.13;0.98;;;20.30;43.80;;;;;;5069585;28;20295;-73
2022/12/27 03:57:15;;;;;;;1.77;1.38;;;20.30;43.80;;;;;;5067647;28;20041;-72
2022/12/27 03:59:43;;;;;;;1.35;1.25;;;20.30;43.80;;;;;;5067879;28;20048;-73
2022/12/27 04:02:11;;;;;;;1.27;1.17;;;20.30;43.80;;;;;;5069306;28;20560;-73
2022/12/27 04:04:38;;;;;;;1.15;1.05;;;20.30;43.80;;;;;;5069186;28;20048;-72
2022/12/27 04:07:06;;;;;;;1.13;1.00;;;20.30;43.80;;;;;;5068793;28;20140;-72
2022/12/27 04:34:42;;;;;;;0.98;0.90;;;20.30;43.80;;;;;;5068968;28;20123;-73
2022/12/27 04:37:15;;;;;;;1.30;1.20;;;20.30;43.80;;;;;;5068010;28;20055;-73
2022/12/27 04:56:33;;;;;;;1.08;1.00;;;20.30;43.80;;;;;;5067393;28;20478;-73
2022/12/27 05:02:03;;;;;;;0.95;0.95;;;20.30;43.80;;;;;;5052805;28;20045;-73
2022/12/27 05:04:33;;;;;;;0.88;0.88;;;20.30;43.90;;;;;;5053249;28;20450;-72
2022/12/27 05:13:58;;;;;;;1.10;1.00;;;20.30;43.90;;;;;;5067997;28;20044;-73
2022/12/27 05:15:22;;;;;;;1.40;1.30;;;20.30;43.90;;;;;;5050539;28;20040;-72
2022/12/27 05:17:49;;;;;;;0.95;0.95;;;20.30;43.90;;;;;;5051632;28;21271;-73
2022/12/27 05:20:16;;;;;;;1.02;1.02;;;20.30;44.40;;;;;;5056000;28;20083;-72
2022/12/27 05:25:33;;;;;;;1.38;1.25;;;20.30;43.90;;;;;;5056628;28;20044;-72
2022/12/27 05:28:01;;;;;;;1.10;1.00;;;20.30;43.90;;;;;;5046372;28;20041;-73
2022/12/27 05:30:31;;;;;;;0.95;0.85;;;20.30;43.90;;;;;;5057105;28;20053;-72
2022/12/27 05:32:58;;;;;;;1.48;1.10;;;20.30;43.90;;;;;;5057517;28;20056;-72
2022/12/27 05:35:25;;;;;;;4.63;2.17;;;20.30;43.90;;;;;;5058807;28;20149;-72
2022/12/27 05:37:54;;;;;;;3.72;2.35;;;20.20;43.80;;;;;;5049575;28;20307;-73
2022/12/27 05:40:22;;;;;;;2.42;2.00;;;20.30;43.80;;;;;;5047723;28;20045;-72
2022/12/27 05:42:50;;;;;;;2.15;1.95;;;20.30;43.60;;;;;;5061127;28;20047;-73
2022/12/27 05:45:18;;;;;;;2.13;1.90;;;20.30;43.50;;;;;;5046539;28;20144;-72
2022/12/27 05:47:45;;;;;;;2.17;1.92;;;20.20;43.40;;;;;;5063404;28;20127;-73
2022/12/27 05:50:12;;;;;;;2.08;1.88;;;20.20;43.40;;;;;;5067447;28;20059;-73
2022/12/27 05:52:39;;;;;;;1.70;1.60;;;20.30;43.40;;;;;;5065915;28;20072;-73
2022/12/27 05:55:07;;;;;;;2.55;2.35;;;20.30;43.30;;;;;;5067366;28;20048;-73
2022/12/27 05:57:35;;;;;;;2.00;1.80;;;20.30;43.30;;;;;;5058662;28;20437;-72
2022/12/27 06:00:04;;;;;;;2.08;1.83;;;20.30;43.30;;;;;;5053922;28;20143;-73
2022/12/27 06:02:31;;;;;;;2.47;1.80;;;20.30;43.30;;;;;;5051387;28;20051;-73
2022/12/27 06:04:59;;;;;;;3.63;1.73;;;20.30;43.30;;;;;;5049713;28;20136;-73
2022/12/27 06:07:26;;;;;;;2.38;2.17;;;20.30;43.30;;;;;;5051082;28;20402;-73
2022/12/27 06:09:53;;;;;;;2.95;2.30;;;20.30;43.20;;;;;;5050929;28;20144;-73
2022/12/27 06:12:20;;;;;;;3.08;2.70;;;20.30;43.20;;;;;;5063980;28;20393;-72
2022/12/27 06:14:47;;;;;;;2.53;2.33;;;20.40;43.20;;;;;;5058441;28;20191;-73
2022/12/27 06:17:14;;;;;;;3.30;3.00;;;20.30;43.10;;;;;;5053829;28;20112;-72
2022/12/27 06:19:41;;;;;;;2.60;2.40;;;20.40;43.10;;;;;;5059636;28;20055;-73
2022/12/27 06:22:08;;;;;;;3.58;2.92;;;20.40;43.00;;;;;;5055924;28;20049;-73
2022/12/27 06:24:35;;;;;;;3.05;2.75;;;20.40;43.00;;;;;;5070750;28;20052;-72
2022/12/27 06:27:02;;;;;;;2.53;2.28;;;20.50;43.00;;;;;;5069893;28;20048;-73
2022/12/27 06:29:30;;;;;;;4.22;3.35;;;20.50;42.90;;;;;;5068710;28;20827;-72
2022/12/27 06:31:57;;;;;;;5.25;3.13;;;20.50;42.80;;;;;;5055401;28;20507;-73
2022/12/27 06:34:24;;;;;;;3.00;2.63;;;20.50;42.80;;;;;;5058625;28;20045;-72
2022/12/27 06:36:51;;;;;;;3.55;2.95;;;20.50;42.70;;;;;;5060313;28;20055;-73
2022/12/27 06:39:18;;;;;;;3.30;2.80;;;20.50;42.70;;;;;;5055296;28;20045;-73
2022/12/27 06:41:46;;;;;;;3.25;2.92;;;20.50;42.60;;;;;;5069865;28;20127;-73
2022/12/27 06:44:13;;;;;;;3.83;3.10;;;20.50;42.50;;;;;;5058711;28;20044;-73
2022/12/27 06:46:40;;;;;;;2.90;2.65;;;20.60;42.50;;;;;;5052545;28;20523;-73
2022/12/27 06:49:09;;;;;;;3.30;3.00;;;20.60;42.50;;;;;;5058133;28;20144;-73
2022/12/27 06:51:36;;;;;;;3.03;2.72;;;20.60;42.40;;;;;;5064387;28;20072;-72
2022/12/27 06:54:03;;;;;;;4.60;3.75;;;20.60;42.40;;;;;;5058615;28;20051;-73
2022/12/27 06:56:30;;;;;;;4.47;3.70;;;20.60;42.30;;;;;;5053563;28;20072;-72
2022/12/27 06:58:57;;;;;;;4.72;3.75;;;20.60;42.30;;;;;;5053147;28;20412;-72
2022/12/27 07:01:26;;;;;;;4.90;3.90;;;20.70;42.30;;;;;;5056679;28;20127;-73
2022/12/27 07:03:56;;;;;;;4.00;3.53;;;20.70;42.20;;;;;;5059735;28;20137;-73
2022/12/27 07:06:25;;;;;;;4.45;3.92;;;20.70;42.20;;;;;;5050974;28;20403;-73
2022/12/27 07:08:53;;;;;;;3.72;3.35;;;20.70;42.10;;;;;;5050875;28;20041;-72
2022/12/27 07:11:21;;;;;;;4.90;4.00;;;20.70;42.10;;;;;;5064083;28;20079;-72
2022/12/27 07:13:51;;;;;;;3.70;3.38;;;20.70;42.00;;;;;;5057087;28;20052;-73
2022/12/27 07:16:21;;;;;;;4.60;3.60;;;20.70;42.00;;;;;;5070076;28;20053;-72
2022/12/27 07:18:48;;;;;;;4.03;3.50;;;20.70;41.90;;;;;;5053106;28;20049;-73
2022/12/27 07:21:19;;;;;;;4.22;3.65;;;20.80;42.00;;;;;;5050742;28;20041;-73
2022/12/27 07:23:46;;;;;;;;;;;20.70;41.90;;;;;;5056590;28;20051;-72
2022/12/27 07:26:16;;;;;;;4.43;3.83;;;20.80;41.90;;;;;;5056391;28;19920;-73
2022/12/27 07:28:44;;;;;;;4.65;3.80;;;20.80;41.80;;;;;;5066251;28;20153;-73
2022/12/27 07:31:17;;;;;;;5.20;4.40;;;20.80;41.70;;;;;;5069800;28;20053;-72
2022/12/27 07:33:45;;;;;;;6.45;4.60;;;20.80;41.70;;;;;;5053704;28;20128;-72
2022/12/27 07:36:18;;;;;;;4.97;4.20;;;20.80;41.70;;;;;;5057612;28;20453;-73
2022/12/27 07:38:46;;;;;;;4.55;4.07;;;20.80;41.60;;;;;;5061456;28;20138;-73
2022/12/27 07:41:14;;;;;;;7.53;4.50;;;20.80;41.60;;;;;;5055033;28;20052;-73
2022/12/27 07:43:43;;;;;;;5.13;4.05;;;20.90;41.60;;;;;;5055343;28;20444;-72
2022/12/27 07:46:13;;;;;;;6.25;5.03;;;20.90;41.50;;;;;;5062253;28;20501;-73
2022/12/27 07:48:41;;;;;;;5.78;4.57;;;20.90;41.50;;;;;;5049795;28;20056;-72
2022/12/27 07:51:09;;;;;;;6.50;5.20;;;20.90;41.40;;;;;;5049461;28;20504;-73
2022/12/27 07:53:37;;;;;;;6.72;5.28;;;21.00;41.40;;;;;;5047864;28;20049;-73
2022/12/27 07:56:07;;;;;;;7.38;5.88;;;21.00;41.40;;;;;;5044457;28;20090;-73
2022/12/27 07:58:39;;;;;;;7.23;5.37;;;21.00;41.30;;;;;;5047699;28;20049;-73
2022/12/27 08:01:07;;;;;;;7.10;5.75;;;21.00;41.30;;;;;;5049585;28;20044;-73
2022/12/27 08:03:35;;;;;;;7.05;5.50;;;21.00;41.20;;;;;;5059682;28;20045;-73
2022/12/27 08:06:03;;;;;;;6.18;5.38;;;21.00;41.20;;;;;;5048243;28;20068;-73
2022/12/27 08:08:38;;;;;;;6.63;5.35;;;21.10;41.10;;;;;;5057171;28;20055;-73
2022/12/27 08:11:06;;;;;;;5.88;4.95;;;21.10;41.10;;;;;;5050182;28;20048;-72
2022/12/27 08:13:33;;;;;;;7.20;5.43;;;21.10;41.10;;;;;;5058356;28;20055;-73
2022/12/27 08:16:01;;;;;;;8.02;5.20;;;21.10;41.00;;;;;;5047642;28;20076;-73
2022/12/27 08:18:29;;;;;;;6.95;5.20;;;21.10;40.90;;;;;;5046413;28;20078;-73
2022/12/27 08:20:56;;;;;;;8.55;6.07;;;21.20;40.90;;;;;;5057830;28;20146;-72
2022/12/27 08:23:23;;;;;;;6.68;5.97;;;21.20;40.90;;;;;;5056480;28;20128;-73
2022/12/27 08:25:50;;;;;;;6.90;5.47;;;21.20;40.90;;;;;;5057814;28;20139;-73
2022/12/27 08:28:17;;;;;;;6.78;5.53;;;21.30;40.90;;;;;;5055444;28;20520;-73
2022/12/27 08:30:45;;;;;;;7.22;5.32;;;21.30;40.80;;;;;;5057391;28;20404;-73
2022/12/27 08:33:18;;;;;;;7.10;5.55;;;21.40;40.80;;;;;;5054190;28;20128;-73
2022/12/27 08:35:45;;;;;;;6.55;5.43;;;21.30;40.70;;;;;;5058064;28;20052;-73
2022/12/27 08:38:21;;;;;;;6.57;5.43;;;21.40;40.70;;;;;;5068388;28;20044;-73
2022/12/27 08:40:48;;;;;;;7.15;5.72;;;21.40;40.60;;;;;;5058344;28;20083;-73
2022/12/27 08:43:15;;;;;;;7.80;5.68;;;21.50;40.60;;;;;;5047123;28;20139;-73
2022/12/27 08:45:42;;;;;;;7.43;5.78;;;21.50;40.50;;;;;;5065866;28;20133;-73
2022/12/27 08:48:09;;;;;;;7.80;5.68;;;21.60;40.40;;;;;;5068155;28;20135;-74
2022/12/27 08:50:36;;;;;;;6.10;5.45;;;21.60;40.40;;;;;;5051861;28;20052;-73
2022/12/27 08:53:04;;;;;;;6.90;5.22;;;21.60;40.30;;;;;;5049712;28;20071;-73
2022/12/27 08:55:32;;;;;;;6.30;5.20;;;21.70;40.30;;;;;;5053543;28;20071;-73
2022/12/27 08:58:04;;;;;;;7.43;5.10;;;21.70;40.30;;;;;;5050279;28;20053;-72
2022/12/27 09:00:39;;;;;;;6.10;4.78;;;21.70;40.20;;;;;;5056174;28;20140;-73
2022/12/27 09:03:08;;;;;;;7.32;5.55;;;21.80;40.20;;;;;;5056609;28;20033;-73
2022/12/27 09:05:35;;;;;;;6.18;5.18;;;21.80;40.10;;;;;;5046391;28;20056;-73
2022/12/27 09:08:08;;;;;;;5.65;4.97;;;21.80;40.00;;;;;;5044274;28;20410;-73
2022/12/27 09:10:35;;;;;;;6.15;4.80;;;21.80;40.00;;;;;;5047832;28;20724;-73
2022/12/27 09:13:03;;;;;;;6.13;4.93;;;21.90;40.00;;;;;;5052575;28;20047;-73
2022/12/27 09:15:30;;;;;;;6.22;5.03;;;21.90;39.90;;;;;;5055769;28;20049;-73
2022/12/27 09:17:57;;;;;;;5.63;4.60;;;21.90;39.90;;;;;;5050176;28;20048;-73
2022/12/27 09:20:24;;;;;;;5.32;3.97;;;21.90;39.80;;;;;;5051599;28;20045;-73
2022/12/27 09:22:51;;;;;;;5.15;4.45;;;21.90;39.80;;;;;;5058122;28;20536;-73
2022/12/27 09:25:19;;;;;;;5.95;4.10;;;21.90;39.80;;;;;;5061686;28;20052;-70
2022/12/27 09:27:47;;;;;;;4.38;3.90;;;21.90;39.80;;;;;;5051131;28;20052;-73
2022/12/27 09:30:14;;;;;;;4.38;3.97;;;21.90;39.90;;;;;;5047639;28;20044;-71
2022/12/27 09:32:42;;;;;;;4.32;3.58;;;21.90;39.70;;;;;;5049231;28;20052;-68
2022/12/27 09:35:09;;;;;;;4.60;4.05;;;21.90;39.80;;;;;;5049249;28;20564;-70
2022/12/27 09:37:36;;;;;;;6.03;3.50;;;22.00;39.80;;;;;;5047319;28;20505;-70
2022/12/27 09:40:04;;;;;;;5.10;3.40;;;22.00;39.70;;;;;;5057501;28;20135;-70
2022/12/27 09:42:49;;;;;;;4.70;4.03;;;22.00;39.70;;;;;;5061011;28;20045;-70
2022/12/27 09:45:43;;;;;;;4.10;3.60;;;22.00;39.70;;;;;;5052472;28;20045;-69
2022/12/27 09:48:37;;;;;;;3.45;3.08;;;22.00;39.60;;;;;;5056698;28;20293;-69
2022/12/27 09:51:25;;;;;;;4.00;3.33;;;22.00;39.50;;;;;;5057959;28;20088;-68
2022/12/27 09:54:02;;;;;;;3.97;3.10;;;22.00;39.40;;;;;;5050976;28;20124;-68
2022/12/27 09:56:33;;;;;;;4.72;3.25;;;22.10;39.40;;;;;;5058827;28;20120;-69
2022/12/27 09:59:34;;;;;;;3.65;3.20;;;22.10;39.20;;;;;;5070035;28;20052;-68
2022/12/27 10:02:03;;;;;;;3.47;2.97;;;22.10;39.00;;;;;;5071806;28;20110;-67
2022/12/27 10:04:35;;;;;;;3.55;2.58;;;22.10;39.00;;;;;;5066473;28;20465;-69
2022/12/27 10:07:49;;;;;;;2.97;2.78;;;22.10;38.90;;;;;;5071088;28;20044;-68
2022/12/27 10:10:37;;;;;;;3.70;2.95;;;22.10;38.90;;;;;;5073231;28;20563;-65
2022/12/27 10:13:37;;;;;;;3.00;2.70;;;22.20;38.90;;;;;;5072735;28;20131;-69
2022/12/27 10:16:24;;;;;;;4.45;3.10;;;22.20;38.90;;;;;;5063846;28;20091;-70
2022/12/27 10:19:14;;;;;;;2.30;2.10;;;22.20;38.90;;;;;;5068456;28;20045;-67
2022/12/27 10:22:08;;;;;;;3.13;2.25;;;22.20;38.70;;;;;;5056323;28;20091;-68
2022/12/27 10:24:48;;;;;;;2.50;2.30;;;22.20;38.60;;;;;;5072980;28;20055;-68
2022/12/27 10:27:24;;;;;;;2.33;2.10;;;22.20;38.60;;;;;;5054733;28;20049;-67
2022/12/27 10:29:56;;;;;;;4.93;2.33;;;22.20;38.80;;;;;;5058018;28;20537;-66
2022/12/27 10:32:23;;;;;;;2.60;2.28;;;22.20;38.60;;;;;;5064361;28;20452;-68
2022/12/27 10:34:55;;;;;;;2.80;2.30;;;22.20;38.50;;;;;;5062078;28;20053;-70
2022/12/27 10:37:23;;;;;;;2.13;1.90;;;22.20;38.40;;;;;;5053068;28;20072;-70
2022/12/27 10:39:50;;;;;;;1.85;1.75;;;22.20;38.30;;;;;;5061618;28;20052;-71
2022/12/27 10:42:38;;;;;;;2.28;1.98;;;22.20;38.20;;;;;;5052539;28;20451;-72
2022/12/27 10:45:27;;;;;;;2.10;1.90;;;22.20;38.70;;;;;;5058379;28;20080;-71
2022/12/27 10:47:57;;;;;;;3.38;2.13;;;22.20;38.00;;;;;;5057189;28;20128;-72
2022/12/27 10:50:27;;;;;;;1.52;1.40;;;22.20;38.00;;;;;;5052409;28;20057;-71
2022/12/27 10:52:54;;;;;;;2.08;1.92;;;22.10;37.90;;;;;;5052472;28;20131;-72
2022/12/27 10:55:38;;;;;;;1.92;1.80;;;22.10;37.90;;;;;;5055027;28;20053;-71
2022/12/27 10:58:34;;;;;;;2.10;1.90;;;22.20;37.90;;;;;;5073425;28;20055;-70
2022/12/27 11:01:01;;;;;;;1.50;1.40;;;22.20;37.80;;;;;;5073088;28;20048;-67
2022/12/27 11:03:29;;;;;;;1.70;1.20;;;22.10;37.70;;;;;;5073069;28;20325;-71
2022/12/27 11:06:01;;;;;;;2.08;1.83;;;22.10;37.70;;;;;;5055202;28;20045;-70
2022/12/27 11:08:29;;;;;;;1.90;1.80;;;22.10;37.60;;;;;;5033787;28;20077;-69
2022/12/27 11:11:21;;;;;;;2.88;1.85;;;22.10;37.50;;;;;;5065940;28;20127;-70
2022/12/27 11:13:49;;;;;;;2.17;1.77;;;22.10;37.40;;;;;;5050578;28;20049;-70
2022/12/27 11:16:29;;;;;;;1.45;1.30;;;22.10;37.20;;;;;;5052790;28;20045;-70
2022/12/27 11:18:59;;;;;;;2.17;1.40;;;22.10;37.10;;;;;;5050970;28;20052;-69
2022/12/27 11:21:28;;;;;;;1.65;1.50;;;22.10;37.10;;;;;;5071867;28;20567;-70
2022/12/27 11:24:01;;;;;;;1.58;1.48;;;22.10;37.10;;;;;;5058844;28;20140;-71
2022/12/27 11:26:32;;;;;;;1.75;1.60;;;22.10;37.00;;;;;;5049682;28;20125;-70
2022/12/27 11:29:01;;;;;;;1.52;1.25;;;22.10;36.80;;;;;;5057954;28;20055;-70
2022/12/27 11:31:39;;;;;;;3.03;1.60;;;22.10;36.80;;;;;;5054548;28;20056;-69
2022/12/27 11:34:19;;;;;;;1.40;1.30;;;22.10;36.80;;;;;;5062819;28;20053;-72
2022/12/27 11:36:52;;;;;;;1.95;1.50;;;22.10;36.80;;;;;;5058265;28;20045;-67
2022/12/27 11:39:43;;;;;;;1.60;1.35;;;22.10;36.70;;;;;;5057786;28;20139;-69
2022/12/27 11:42:37;;;;;;;2.10;1.63;;;22.10;36.70;;;;;;5050019;28;20051;-70
2022/12/27 11:45:29;;;;;;;1.30;1.17;;;22.10;36.70;;;;;;5062346;28;20045;-68
2022/12/27 11:48:13;;;;;;;1.70;1.15;;;22.20;36.80;;;;;;5055692;28;20083;-69
2022/12/27 11:51:09;;;;;;;3.33;1.15;;;22.10;36.80;;;;;;5048878;28;20275;-69
2022/12/27 11:54:09;;;;;;;2.03;1.60;;;22.10;36.60;;;;;;5065671;28;20048;-69
2022/12/27 11:56:41;;;;;;;1.25;1.15;;;22.10;36.60;;;;;;5052363;28;20251;-69
2022/12/27 11:59:48;;;;;;;1.48;1.00;;;22.10;36.60;;;;;;5048783;28;20049;-69
2022/12/27 12:03:05;;;;;;;1.45;1.27;;;22.10;36.50;;;;;;5049404;28;20081;-69
2022/12/27 12:06:01;;;;;;;1.10;1.08;;;22.00;36.40;;;;;;5048926;28;20463;-69
2022/12/27 12:08:54;;;;;;;1.40;1.10;;;22.00;36.30;;;;;;5051574;28;20044;-69
2022/12/27 12:11:41;;;;;;;1.40;1.30;;;22.00;36.30;;;;;;5047981;28;20634;-69
2022/12/27 12:14:44;;;;;;;3.33;1.00;;;22.00;36.20;;;;;;5048822;28;20049;-69
2022/12/27 12:17:50;;;;;;;1.30;1.20;;;22.00;36.10;;;;;;5061236;28;20139;-69
2022/12/27 12:20:55;;;;;;;1.50;1.35;;;22.00;36.00;;;;;;5053798;28;20063;-68
2022/12/27 12:23:55;;;;;;;1.27;0.95;;;22.00;35.90;;;;;;5056309;28;20036;-67
2022/12/27 12:26:29;;;;;;;;;;;22.00;35.90;;;;;;5064030;28;20053;-70
2022/12/27 12:29:24;;;;;;;1.67;1.10;;;22.00;35.90;;;;;;5069967;28;20376;-66
2022/12/27 12:32:28;;;;;;;1.85;0.93;;;22.00;35.80;;;;;;5067216;28;20511;-67
2022/12/27 12:35:33;;;;;;;0.80;0.80;;;22.00;35.60;;;;;;5068724;28;20468;-68
2022/12/27 12:38:18;;;;;;;1.50;0.80;;;22.00;35.50;;;;;;5069507;28;20143;-65
2022/12/27 12:41:23;;;;;;;2.63;0.80;;;22.00;35.30;;;;;;5069018;28;20263;-67
2022/12/27 12:44:30;;;;;;;0.98;0.85;;;22.00;35.50;;;;;;5055025;28;20553;-66
2022/12/27 12:47:43;;;;;;;0.70;0.70;;;22.10;35.60;;;;;;5068602;28;20127;-64
2022/12/27 12:50:46;;;;;;;1.25;1.13;;;22.10;35.70;;;;;;5066453;28;20131;-65
2022/12/27 12:53:44;;;;;;;1.13;0.82;;;22.10;35.60;;;;;;5066357;28;20037;-65
2022/12/27 12:56:41;;;;;;;0.60;0.60;;;22.20;35.50;;;;;;5067666;28;20140;-64
2022/12/27 12:59:48;;;;;;;1.90;0.90;;;22.10;35.40;;;;;;5067038;28;20051;-65
2022/12/27 13:02:52;;;;;;;0.70;0.70;;;22.20;35.30;;;;;;5061937;28;20036;-65
2022/12/27 13:05:40;;;;;;;1.65;0.73;;;22.20;35.20;;;;;;5068100;28;20497;-67
2022/12/27 13:08:34;;;;;;;0.60;0.60;;;22.20;35.10;;;;;;5067408;28;20467;-66
2022/12/27 13:11:31;;;;;;;0.52;0.50;;;22.20;35.20;;;;;;5068014;28;20055;-66
2022/12/27 13:14:16;;;;;;;0.80;0.80;;;22.20;35.10;;;;;;5066790;28;20127;-67
2022/12/27 13:17:09;;;;;;;0.85;0.50;;;22.20;35.10;;;;;;5067172;28;20050;-66
2022/12/27 13:20:00;;;;;;;0.95;0.88;;;22.20;35.00;;;;;;5067527;28;20489;-66
2022/12/27 13:22:55;;;;;;;0.60;0.60;;;22.20;34.80;;;;;;5067840;28;20170;-66
2022/12/27 13:26:02;;;;;;;1.20;0.80;;;22.20;34.60;;;;;;5067009;28;20356;-66
2022/12/27 13:28:55;;;;;;;1.00;0.63;;;22.20;34.50;;;;;;5068271;28;20044;-66
2022/12/27 13:31:51;;;;;;;1.52;0.95;;;22.20;34.40;;;;;;5066877;28;20167;-66
2022/12/27 13:34:58;;;;;;;1.38;0.50;;;22.20;34.30;;;;;;5068523;28;20384;-68
2022/12/27 13:37:51;;;;;;;0.60;0.60;;;22.20;35.00;;;;;;5066765;28;20040;-68
2022/12/27 13:40:48;;;;;;;0.47;0.47;;;22.20;34.40;;;;;;5063187;28;20044;-70
2022/12/27 13:43:49;;;;;;;0.57;0.57;;;22.20;34.50;;;;;;5068202;28;20044;-68
2022/12/27 13:46:44;;;;;;;0.47;0.47;;;22.20;34.50;;;;;;5068123;28;20055;-69
2022/12/27 13:49:48;;;;;;;0.77;0.73;;;22.20;34.40;;;;;;5065681;28;20044;-69
2022/12/27 13:52:46;;;;;;;1.92;0.80;;;22.20;34.40;;;;;;5067203;28;20517;-69
2022/12/27 13:55:43;;;;;;;0.70;0.70;;;22.20;34.30;;;;;;5067023;28;20057;-69
2022/12/27 13:58:49;;;;;;;0.80;0.73;;;22.20;34.20;;;;;;5066088;28;20079;-69
2022/12/27 14:01:47;;;;;;;1.15;0.80;;;22.20;34.00;;;;;;5067386;28;20056;-68
2022/12/27 14:04:32;;;;;;;2.15;0.57;;;22.20;33.90;;;;;;5068955;28;20048;-67
2022/12/27 14:07:36;;;;;;;1.08;0.70;;;22.20;34.00;;;;;;5068339;28;20123;-68
2022/12/27 14:10:30;;;;;;;0.52;0.50;;;22.20;33.90;;;;;;5066940;28;20064;-68
2022/12/27 14:13:08;;;;;;;0.30;0.30;;;22.20;33.90;;;;;;5051475;28;20106;-68
2022/12/27 14:16:15;;;;;;;0.63;0.50;;;22.10;33.80;;;;;;5068337;28;20394;-69
